TNR weather

Ivato Airport
Antananarivo, Antananarivo, Madagascar

Public forecast

Using degrees Celsius for public forecast. Weather courtesy of forecast.io.

Current aviation weather report (METAR) for Ivato Airport

Retrieved 2019/10/24 03:30 UTC (25 minutes ago):

FMMI 240330Z 17006KT 140V200 9999 FEW017 18/14 Q1023 NOSIG

Aviation forecast (TAF) for Ivato Airport

Retrieved 2019-10-24 00:00 UTC (4 hours ago):

TAF FMMI 232300Z 2400/2506 00000KT 9999 FEW017 SCT020 BECMG 2408/2410 10010KT BECMG 2416/2418 00000KT PROB40 2500/2505 0800 FG BKN004